Burke, South Dakota
Current Conditions -  °F | °C
As of 2:53 AM on Sunday 23 Nov 2014 (Local Time) from KICR Reporting Station
Clear Clear  
Wind Chill: 31°   Ceiling: Unl
Heat Index: 40°   Visibility: 10mi
Dew Point: 32°   Wind: 18mph
Humidity: 73%   Direction: 300°WNW
Pressure: 29.47"   Gusts: NA
Location:  43.18°N, 99.29°W
Report Text: KICR 230853Z AUTO 30016KT 10SM CLR 04/00 A2947 RMK AO2 SLP980 T00440000 53019
Loading
Personal Weather Stations






























Interactive Weather Map New forecast layout! Learn more

10-Day Weather Forecast

Advertisements
Track Severe Weather on mobile